Time;durP1;ratioP1;P1;durP2;ratioP2;P2;SDS_P1;SDS_P2;PMS_P1;PMS_P2;Temp;Humidity;BMP_temperature;BMP_pressure;BME280_temperature;BME280_humidity;BME280_pressure;Samples;Min_cycle;Max_cycle;Signal;HPM_P1;HPM_P2
2022/02/27 00:01:13;;;;;;;7.15;3.63;;;;;;;;;;4476732;28;20042;-59
2022/02/27 00:03:24;;;;;;;6.90;3.30;;;;;;;;;;4487377;28;20042;-59
2022/02/27 00:05:34;;;;;;;5.63;2.77;;;;;;;;;;4479339;28;20528;-59
2022/02/27 00:07:45;;;;;;;6.87;3.10;;;;;;;;;;4480078;28;20158;-59
2022/02/27 00:09:55;;;;;;;5.80;3.07;;;;;;;;;;4481755;28;20030;-60
2022/02/27 00:12:06;;;;;;;5.07;2.90;;;;;;;;;;4483695;28;20624;-59
2022/02/27 00:14:16;;;;;;;5.38;2.88;;;;;;;;;;4481134;28;20035;-59
2022/02/27 00:16:27;;;;;;;6.37;2.83;;;;;;;;;;4478240;28;20071;-59
2022/02/27 00:18:37;;;;;;;7.33;2.97;;;;;;;;;;4480953;28;20074;-59
2022/02/27 00:20:48;;;;;;;5.60;2.97;;;;;;;;;;4483038;28;20026;-59
2022/02/27 00:22:58;;;;;;;4.17;2.43;;;;;;;;;;4483363;28;20474;-59
2022/02/27 00:25:09;;;;;;;5.90;2.80;;;;;;;;;;4481359;28;20034;-59
2022/02/27 00:27:20;;;;;;;5.13;2.90;;;;;;;;;;4487600;28;20034;-59
2022/02/27 00:29:30;;;;;;;5.93;2.73;;;;;;;;;;4479948;28;20038;-59
2022/02/27 00:31:45;;;;;;;5.00;2.60;;;;;;;;;;4480543;28;20038;-59
2022/02/27 00:33:55;;;;;;;6.43;3.10;;;;;;;;;;4481129;28;20034;-59
2022/02/27 00:36:07;;;;;;;4.93;2.50;;;;;;;;;;4483672;28;20086;-59
2022/02/27 00:38:17;;;;;;;3.80;2.50;;;;;;;;;;4464510;28;20474;-61
2022/02/27 00:40:28;;;;;;;7.20;2.73;;;;;;;;;;4483659;28;20030;-59
2022/02/27 00:42:38;;;;;;;4.87;2.57;;;;;;;;;;4481081;28;20069;-59
2022/02/27 00:44:49;;;;;;;4.20;2.30;;;;;;;;;;4486192;28;20142;-59
2022/02/27 00:46:59;;;;;;;6.07;2.50;;;;;;;;;;4484189;28;20117;-59
2022/02/27 00:49:09;;;;;;;6.47;2.43;;;;;;;;;;4464211;28;26023;-59
2022/02/27 00:51:20;;;;;;;5.17;2.63;;;;;;;;;;4482503;28;20039;-59
2022/02/27 00:53:31;;;;;;;5.13;2.60;;;;;;;;;;4481439;28;20070;-59
2022/02/27 00:55:41;;;;;;;4.20;2.40;;;;;;;;;;4485219;28;20065;-59
2022/02/27 00:57:51;;;;;;;4.70;2.43;;;;;;;;;;4481597;28;20039;-59
2022/02/27 01:00:04;;;;;;;4.90;2.73;;;;;;;;;;4480422;28;20049;-59
2022/02/27 01:02:15;;;;;;;6.53;2.72;;;;;;;;;;4483071;28;20606;-59
2022/02/27 01:04:26;;;;;;;5.03;2.40;;;;;;;;;;4482496;28;20819;-59
2022/02/27 01:06:36;;;;;;;5.63;2.80;;;;;;;;;;4483808;28;20535;-59
2022/02/27 01:08:46;;;;;;;4.80;2.50;;;;;;;;;;4479612;28;20130;-59
2022/02/27 01:10:57;;;;;;;4.37;2.60;;;;;;;;;;4462420;28;20039;-59
2022/02/27 01:13:07;;;;;;;5.27;2.37;;;;;;;;;;4479089;28;20129;-59
2022/02/27 01:15:19;;;;;;;4.80;2.60;;;;;;;;;;4487077;28;20035;-59
2022/02/27 01:17:29;;;;;;;7.47;2.80;;;;;;;;;;4479884;28;20042;-59
2022/02/27 01:19:40;;;;;;;5.27;2.60;;;;;;;;;;4463248;28;20444;-59
2022/02/27 01:21:50;;;;;;;5.10;2.37;;;;;;;;;;4480118;28;20126;-59
2022/02/27 01:24:00;;;;;;;4.57;2.00;;;;;;;;;;4478649;28;20042;-59
2022/02/27 01:26:12;;;;;;;4.67;2.30;;;;;;;;;;4481075;28;20046;-59
2022/02/27 01:28:23;;;;;;;7.10;2.50;;;;;;;;;;4468981;28;20031;-59
2022/02/27 01:30:33;;;;;;;4.10;1.90;;;;;;;;;;4481963;28;20018;-59
2022/02/27 01:32:44;;;;;;;3.67;1.97;;;;;;;;;;4480851;28;20058;-59
2022/02/27 01:34:54;;;;;;;4.83;1.93;;;;;;;;;;4486108;28;20038;-59
2022/02/27 01:37:05;;;;;;;5.00;2.20;;;;;;;;;;4481126;28;20085;-59
2022/02/27 01:39:15;;;;;;;5.77;2.10;;;;;;;;;;4481079;28;20121;-59
2022/02/27 01:41:27;;;;;;;5.50;2.30;;;;;;;;;;4480688;28;20030;-59
2022/02/27 01:43:37;;;;;;;5.85;2.50;;;;;;;;;;4478933;28;20050;-59
2022/02/27 01:45:48;;;;;;;6.10;2.50;;;;;;;;;;4479840;28;20106;-59
2022/02/27 01:47:58;;;;;;;3.53;1.90;;;;;;;;;;4484660;28;20046;-59
2022/02/27 01:50:09;;;;;;;3.43;1.77;;;;;;;;;;4464014;28;20125;-59
2022/02/27 01:52:19;;;;;;;2.40;1.67;;;;;;;;;;4480610;28;20041;-59
2022/02/27 01:54:30;;;;;;;4.13;1.70;;;;;;;;;;4480607;28;20058;-60
2022/02/27 01:56:41;;;;;;;4.83;2.23;;;;;;;;;;4481197;28;20034;-59
2022/02/27 01:58:51;;;;;;;3.33;1.80;;;;;;;;;;4480017;28;20158;-59
2022/02/27 02:01:02;;;;;;;3.50;1.60;;;;;;;;;;4469242;28;20035;-59
2022/02/27 02:03:13;;;;;;;2.75;1.50;;;;;;;;;;4477838;28;21288;-59
2022/02/27 02:05:23;;;;;;;2.87;1.70;;;;;;;;;;4479703;28;20088;-59
2022/02/27 02:07:35;;;;;;;4.43;1.70;;;;;;;;;;4478666;28;20035;-60
2022/02/27 02:09:46;;;;;;;3.43;1.63;;;;;;;;;;4478127;28;20626;-59
2022/02/27 02:11:57;;;;;;;;;;;;;;;;;;4483967;28;20038;-59
2022/02/27 02:14:08;;;;;;;4.77;1.97;;;;;;;;;;4481202;28;19957;-59
2022/02/27 02:16:19;;;;;;;4.40;1.97;;;;;;;;;;4497054;28;20042;-59
2022/02/27 02:18:29;;;;;;;4.27;1.83;;;;;;;;;;4467347;28;20027;-59
2022/02/27 02:20:40;;;;;;;4.30;1.93;;;;;;;;;;4484715;28;20037;-59
2022/02/27 02:22:50;;;;;;;4.73;1.70;;;;;;;;;;4479751;28;20039;-59
2022/02/27 02:25:02;;;;;;;3.13;1.50;;;;;;;;;;4465014;28;20147;-59
2022/02/27 02:27:12;;;;;;;3.10;1.40;;;;;;;;;;4478760;28;20258;-59
2022/02/27 02:29:24;;;;;;;5.95;1.90;;;;;;;;;;4466082;28;20086;-59
2022/02/27 02:31:36;;;;;;;4.43;1.83;;;;;;;;;;4473139;28;20035;-59
2022/02/27 02:33:46;;;;;;;2.75;1.50;;;;;;;;;;4480540;28;20035;-59
2022/02/27 02:35:57;;;;;;;4.10;1.80;;;;;;;;;;4481035;28;20081;-59
2022/02/27 02:38:08;;;;;;;4.00;1.70;;;;;;;;;;4483521;28;20038;-59
2022/02/27 02:40:21;;;;;;;4.60;1.70;;;;;;;;;;4484770;28;20052;-57
2022/02/27 02:42:38;;;;;;;3.83;1.70;;;;;;;;;;4469702;28;20034;-57
2022/02/27 02:44:49;;;;;;;3.67;1.90;;;;;;;;;;4468782;28;20078;-57
2022/02/27 02:47:00;;;;;;;3.65;1.52;;;;;;;;;;4480789;28;20062;-56
2022/02/27 02:49:12;;;;;;;3.85;1.52;;;;;;;;;;4464050;28;20102;-57
2022/02/27 02:51:30;;;;;;;4.30;1.60;;;;;;;;;;4479385;28;20113;-57
2022/02/27 02:53:40;;;;;;;4.70;1.60;;;;;;;;;;4479745;28;20042;-56
2022/02/27 02:55:51;;;;;;;4.53;1.67;;;;;;;;;;4478302;28;20070;-57
2022/02/27 02:58:01;;;;;;;3.90;1.70;;;;;;;;;;4478709;28;39016;-57
2022/02/27 03:00:13;;;;;;;3.50;1.50;;;;;;;;;;4478685;28;20047;-57
2022/02/27 03:02:23;;;;;;;4.60;1.92;;;;;;;;;;4478860;28;20035;-56
2022/02/27 03:04:34;;;;;;;3.60;1.90;;;;;;;;;;4480182;28;31185;-56
2022/02/27 03:06:44;;;;;;;4.83;2.07;;;;;;;;;;4478620;28;25404;-56
2022/02/27 03:08:54;;;;;;;3.30;1.43;;;;;;;;;;4479733;28;20042;-56
2022/02/27 03:11:05;;;;;;;2.73;1.43;;;;;;;;;;4481138;28;20034;-57
2022/02/27 03:13:15;;;;;;;4.83;2.10;;;;;;;;;;4478013;28;20030;-56
2022/02/27 03:15:26;;;;;;;6.17;1.90;;;;;;;;;;4477592;28;20045;-56
2022/02/27 03:17:36;;;;;;;3.67;1.53;;;;;;;;;;4478575;28;32701;-57
2022/02/27 03:19:47;;;;;;;3.97;1.70;;;;;;;;;;4482797;28;20498;-57
2022/02/27 03:21:57;;;;;;;2.93;1.40;;;;;;;;;;4494772;28;20038;-56
2022/02/27 03:24:08;;;;;;;3.80;1.47;;;;;;;;;;4478103;28;20037;-57
2022/02/27 03:26:19;;;;;;;2.97;1.67;;;;;;;;;;4479621;28;20033;-57
2022/02/27 03:28:29;;;;;;;3.75;1.80;;;;;;;;;;4480706;28;20574;-56
2022/02/27 03:30:40;;;;;;;4.33;1.60;;;;;;;;;;4480088;28;20102;-57
2022/02/27 03:32:50;;;;;;;3.50;1.63;;;;;;;;;;4480190;28;44693;-57
2022/02/27 03:35:01;;;;;;;4.07;1.57;;;;;;;;;;4478806;28;20458;-56
2022/02/27 03:37:11;;;;;;;4.43;1.60;;;;;;;;;;4481898;28;42217;-57
2022/02/27 03:39:21;;;;;;;4.50;1.73;;;;;;;;;;4484574;28;21287;-56
2022/02/27 03:41:32;;;;;;;2.27;1.47;;;;;;;;;;4483635;28;20069;-56
2022/02/27 03:43:42;;;;;;;3.87;1.33;;;;;;;;;;4482684;28;20046;-56
2022/02/27 03:45:53;;;;;;;4.87;1.80;;;;;;;;;;4480547;28;20449;-57
2022/02/27 03:48:04;;;;;;;3.63;1.30;;;;;;;;;;4480497;28;20035;-56
2022/02/27 03:50:15;;;;;;;3.47;1.60;;;;;;;;;;4480587;28;20028;-56
2022/02/27 03:52:26;;;;;;;3.70;1.50;;;;;;;;;;4483467;28;20912;-56
2022/02/27 03:54:36;;;;;;;2.80;1.43;;;;;;;;;;4482193;28;20173;-57
2022/02/27 03:56:47;;;;;;;4.53;1.73;;;;;;;;;;4482230;28;23753;-56
2022/02/27 03:58:57;;;;;;;3.63;1.20;;;;;;;;;;4481049;28;20049;-57
2022/02/27 04:01:08;;;;;;;2.90;1.27;;;;;;;;;;4483351;28;20510;-57
2022/02/27 04:03:19;;;;;;;3.90;1.50;;;;;;;;;;4484190;28;20038;-56
2022/02/27 04:05:29;;;;;;;4.43;1.70;;;;;;;;;;4479435;28;20030;-56
2022/02/27 04:07:40;;;;;;;5.33;2.20;;;;;;;;;;4480994;28;20076;-57
2022/02/27 04:09:50;;;;;;;4.27;1.60;;;;;;;;;;4483570;28;20596;-57
2022/02/27 04:12:01;;;;;;;4.07;1.87;;;;;;;;;;4482067;28;20944;-56
2022/02/27 04:14:11;;;;;;;2.07;1.20;;;;;;;;;;4482543;28;20104;-57
2022/02/27 04:16:23;;;;;;;3.97;1.60;;;;;;;;;;4480906;28;24457;-56
2022/02/27 04:18:33;;;;;;;4.05;1.67;;;;;;;;;;4482872;28;20806;-57
2022/02/27 04:20:43;;;;;;;4.07;1.47;;;;;;;;;;4484954;28;20034;-57
2022/02/27 04:22:54;;;;;;;2.93;1.47;;;;;;;;;;4482996;28;36255;-57
2022/02/27 04:25:05;;;;;;;4.20;1.77;;;;;;;;;;4482426;28;20059;-57
2022/02/27 04:27:16;;;;;;;4.40;1.63;;;;;;;;;;4481083;28;20039;-57
2022/02/27 04:29:27;;;;;;;4.30;1.55;;;;;;;;;;4481066;28;20101;-56
2022/02/27 04:31:37;;;;;;;5.60;1.80;;;;;;;;;;4480905;28;37122;-57
2022/02/27 04:33:47;;;;;;;6.47;1.87;;;;;;;;;;4478725;28;38971;-57
2022/02/27 04:35:58;;;;;;;4.30;1.53;;;;;;;;;;4480659;28;20030;-57
2022/02/27 04:38:08;;;;;;;4.07;1.63;;;;;;;;;;4480980;28;20060;-57
2022/02/27 04:40:19;;;;;;;6.00;1.80;;;;;;;;;;4481349;28;39605;-57
2022/02/27 04:42:29;;;;;;;3.30;1.30;;;;;;;;;;4480823;28;20039;-56
2022/02/27 04:44:41;;;;;;;4.47;1.83;;;;;;;;;;4480838;28;23438;-57
2022/02/27 04:46:51;;;;;;;3.65;1.50;;;;;;;;;;4481772;28;20535;-57
2022/02/27 04:49:02;;;;;;;4.33;1.67;;;;;;;;;;4481646;28;20035;-57
2022/02/27 04:51:12;;;;;;;3.43;1.40;;;;;;;;;;4482143;28;20046;-57
2022/02/27 04:53:23;;;;;;;5.03;1.70;;;;;;;;;;4482100;28;20089;-57
2022/02/27 04:55:33;;;;;;;3.60;1.40;;;;;;;;;;4480901;28;35630;-57
2022/02/27 04:57:44;;;;;;;4.83;1.60;;;;;;;;;;4484787;28;20042;-57
2022/02/27 04:59:54;;;;;;;4.03;1.60;;;;;;;;;;4482632;28;20054;-57
2022/02/27 05:02:05;;;;;;;3.67;1.40;;;;;;;;;;4483033;28;20033;-56
2022/02/27 05:04:16;;;;;;;2.43;1.20;;;;;;;;;;4483068;28;20489;-56
2022/02/27 05:06:27;;;;;;;2.45;1.40;;;;;;;;;;4482625;28;20048;-56
2022/02/27 05:08:37;;;;;;;4.10;1.73;;;;;;;;;;4480825;28;20052;-56
2022/02/27 05:10:48;;;;;;;3.87;1.63;;;;;;;;;;4481127;28;20034;-57
2022/02/27 05:12:58;;;;;;;4.47;1.60;;;;;;;;;;4483093;28;20037;-56
2022/02/27 05:15:10;;;;;;;4.47;1.67;;;;;;;;;;4482829;28;20046;-56
2022/02/27 05:17:20;;;;;;;2.83;1.50;;;;;;;;;;4482787;28;20031;-56
2022/02/27 05:19:31;;;;;;;2.97;1.50;;;;;;;;;;4480048;28;27586;-56
2022/02/27 05:21:42;;;;;;;3.97;1.50;;;;;;;;;;4479950;28;20039;-56
2022/02/27 05:23:52;;;;;;;2.15;1.30;;;;;;;;;;4483135;28;20030;-57
2022/02/27 05:26:03;;;;;;;4.57;1.87;;;;;;;;;;4481950;28;22320;-57
2022/02/27 05:28:13;;;;;;;4.07;1.57;;;;;;;;;;4481781;28;20050;-57
2022/02/27 05:30:24;;;;;;;4.43;1.77;;;;;;;;;;4478955;28;20403;-57
2022/02/27 05:32:34;;;;;;;3.90;1.30;;;;;;;;;;4481779;28;20054;-56
2022/02/27 05:34:45;;;;;;;4.20;1.67;;;;;;;;;;4479914;28;20128;-57
2022/02/27 05:36:55;;;;;;;3.40;1.53;;;;;;;;;;4479338;28;20035;-57
2022/02/27 05:39:06;;;;;;;3.67;1.63;;;;;;;;;;4483480;28;20034;-56
2022/02/27 05:41:17;;;;;;;4.20;1.60;;;;;;;;;;4482948;28;20574;-57
2022/02/27 05:43:27;;;;;;;3.97;1.57;;;;;;;;;;4482418;28;20487;-57
2022/02/27 05:45:37;;;;;;;4.63;1.77;;;;;;;;;;4483320;28;20153;-61
2022/02/27 05:47:48;;;;;;;3.47;1.70;;;;;;;;;;4480336;28;20039;-58
2022/02/27 05:49:58;;;;;;;3.30;1.80;;;;;;;;;;4478037;28;20049;-58
2022/02/27 05:52:09;;;;;;;3.43;1.53;;;;;;;;;;4480570;28;20667;-58
2022/02/27 05:54:19;;;;;;;4.27;1.73;;;;;;;;;;4480033;28;20035;-57
2022/02/27 05:56:30;;;;;;;2.97;1.70;;;;;;;;;;4479543;28;26790;-57
2022/02/27 05:58:40;;;;;;;4.07;1.70;;;;;;;;;;4482888;28;25972;-57
2022/02/27 06:00:50;;;;;;;2.70;1.47;;;;;;;;;;4479624;28;23889;-58
2022/02/27 06:03:01;;;;;;;3.07;1.50;;;;;;;;;;4480103;28;20384;-57
2022/02/27 06:05:11;;;;;;;3.10;1.53;;;;;;;;;;4480344;28;20038;-58
2022/02/27 06:07:22;;;;;;;6.40;1.93;;;;;;;;;;4479161;28;20042;-58
2022/02/27 06:09:32;;;;;;;4.17;1.87;;;;;;;;;;4480513;28;20030;-57
2022/02/27 06:11:42;;;;;;;4.57;1.80;;;;;;;;;;4480507;28;20034;-58
2022/02/27 06:13:53;;;;;;;4.10;1.57;;;;;;;;;;4479999;28;20186;-57
2022/02/27 06:16:03;;;;;;;3.63;1.47;;;;;;;;;;4482788;28;20174;-58
2022/02/27 06:18:14;;;;;;;2.70;1.53;;;;;;;;;;4480401;28;26234;-57
2022/02/27 06:20:24;;;;;;;3.90;1.77;;;;;;;;;;4478341;28;25690;-57
2022/02/27 06:22:40;;;;;;;3.93;1.50;;;;;;;;;;4480469;28;20030;-59
2022/02/27 06:24:50;;;;;;;4.40;1.50;;;;;;;;;;4478927;28;20029;-58
2022/02/27 06:27:01;;;;;;;3.27;1.73;;;;;;;;;;4481682;28;36195;-59
2022/02/27 06:29:12;;;;;;;4.50;1.90;;;;;;;;;;4484315;28;20491;-58
2022/02/27 06:31:22;;;;;;;4.57;1.67;;;;;;;;;;4480190;28;25819;-59
2022/02/27 06:33:33;;;;;;;3.17;1.60;;;;;;;;;;4482397;28;20683;-58
2022/02/27 06:35:43;;;;;;;3.53;1.80;;;;;;;;;;4480280;28;20034;-58
2022/02/27 06:37:54;;;;;;;3.77;1.63;;;;;;;;;;4482489;28;20141;-57
2022/02/27 06:40:06;;;;;;;3.27;1.73;;;;;;;;;;4481351;28;20038;-58
2022/02/27 06:42:16;;;;;;;3.45;1.83;;;;;;;;;;4481755;28;20018;-58
2022/02/27 06:44:27;;;;;;;4.20;1.77;;;;;;;;;;4480883;28;20038;-59
2022/02/27 06:46:37;;;;;;;4.00;1.67;;;;;;;;;;4477948;28;30174;-58
2022/02/27 06:48:47;;;;;;;3.33;1.57;;;;;;;;;;4480325;28;20440;-58
2022/02/27 06:50:58;;;;;;;4.43;2.00;;;;;;;;;;4480772;28;20042;-58
2022/02/27 06:53:10;;;;;;;3.57;1.83;;;;;;;;;;4478812;28;20431;-59
2022/02/27 06:55:20;;;;;;;4.72;2.10;;;;;;;;;;4478762;28;20253;-58
2022/02/27 06:57:31;;;;;;;2.77;1.50;;;;;;;;;;4482842;28;20402;-59
2022/02/27 06:59:41;;;;;;;3.13;1.47;;;;;;;;;;4479725;28;20064;-58
2022/02/27 07:01:52;;;;;;;3.17;1.70;;;;;;;;;;4478642;28;20066;-58
2022/02/27 07:04:02;;;;;;;3.70;1.83;;;;;;;;;;4485309;28;20035;-59
2022/02/27 07:06:13;;;;;;;3.70;1.83;;;;;;;;;;4481104;28;20553;-58
2022/02/27 07:08:23;;;;;;;4.27;1.87;;;;;;;;;;4479079;28;35439;-58
2022/02/27 07:10:33;;;;;;;4.57;2.00;;;;;;;;;;4480692;28;20061;-58
2022/02/27 07:12:46;;;;;;;2.97;1.40;;;;;;;;;;4483029;28;20046;-59
2022/02/27 07:14:57;;;;;;;3.47;1.50;;;;;;;;;;4484489;28;20037;-58
2022/02/27 07:17:08;;;;;;;3.58;1.80;;;;;;;;;;4483210;28;20785;-58
2022/02/27 07:19:18;;;;;;;4.03;1.70;;;;;;;;;;4480703;28;20046;-59
2022/02/27 07:21:28;;;;;;;4.03;2.07;;;;;;;;;;4481612;28;20042;-58
2022/02/27 07:23:39;;;;;;;3.53;1.97;;;;;;;;;;4482276;28;20778;-58
2022/02/27 07:25:49;;;;;;;2.83;1.70;;;;;;;;;;4483407;28;20038;-58
2022/02/27 07:28:00;;;;;;;2.90;1.70;;;;;;;;;;4483444;28;20037;-58
2022/02/27 07:30:11;;;;;;;4.43;1.93;;;;;;;;;;4481510;28;33319;-58
2022/02/27 07:32:21;;;;;;;4.65;2.20;;;;;;;;;;4482127;28;20038;-58
2022/02/27 07:34:31;;;;;;;3.07;1.50;;;;;;;;;;4487238;28;20091;-58
2022/02/27 07:36:42;;;;;;;4.07;2.00;;;;;;;;;;4482346;28;20042;-59
2022/02/27 07:38:52;;;;;;;2.60;1.60;;;;;;;;;;4482261;28;20177;-59
2022/02/27 07:41:03;;;;;;;3.30;1.77;;;;;;;;;;4483762;28;20042;-58
2022/02/27 07:43:15;;;;;;;3.43;1.80;;;;;;;;;;4483366;28;20047;-59
2022/02/27 07:45:25;;;;;;;;;;;;;;;;;;4482461;28;20034;-57
2022/02/27 07:47:36;;;;;;;4.72;2.00;;;;;;;;;;4481160;28;20423;-59
2022/02/27 07:49:47;;;;;;;6.03;2.05;;;;;;;;;;4482059;28;20069;-58
2022/02/27 07:51:57;;;;;;;3.43;1.77;;;;;;;;;;4483991;28;37215;-58
2022/02/27 07:54:08;;;;;;;2.97;1.60;;;;;;;;;;4482289;28;20037;-58
2022/02/27 07:56:18;;;;;;;3.37;1.70;;;;;;;;;;4483939;28;21506;-58
2022/02/27 07:58:28;;;;;;;5.57;2.00;;;;;;;;;;4484771;28;23359;-58
2022/02/27 08:00:40;;;;;;;3.40;1.50;;;;;;;;;;4477864;28;20042;-58
2022/02/27 08:02:51;;;;;;;4.18;1.88;;;;;;;;;;4484131;28;20019;-58
2022/02/27 08:05:01;;;;;;;4.00;1.67;;;;;;;;;;4481824;28;20488;-58
2022/02/27 08:07:12;;;;;;;2.87;1.60;;;;;;;;;;4483318;28;20042;-59
2022/02/27 08:09:22;;;;;;;3.70;1.73;;;;;;;;;;4482570;28;20030;-58
2022/02/27 08:11:33;;;;;;;5.70;1.90;;;;;;;;;;4482153;28;33086;-58
2022/02/27 08:13:43;;;;;;;3.87;1.80;;;;;;;;;;4482417;28;20046;-58
2022/02/27 08:15:57;;;;;;;4.43;1.80;;;;;;;;;;4481658;28;20038;-57
2022/02/27 08:18:08;;;;;;;4.05;1.63;;;;;;;;;;4481959;28;20043;-58
2022/02/27 08:20:18;;;;;;;3.37;1.73;;;;;;;;;;4487452;28;20046;-58
2022/02/27 08:22:29;;;;;;;2.53;1.47;;;;;;;;;;4481668;28;20034;-58
2022/02/27 08:24:40;;;;;;;3.10;1.67;;;;;;;;;;4485166;28;20605;-58
2022/02/27 08:26:50;;;;;;;4.30;1.67;;;;;;;;;;4482656;28;20027;-58
2022/02/27 08:29:02;;;;;;;2.90;1.50;;;;;;;;;;4481785;28;20023;-58
2022/02/27 08:31:12;;;;;;;4.28;2.00;;;;;;;;;;4480376;28;20046;-58
2022/02/27 08:33:23;;;;;;;4.17;1.67;;;;;;;;;;4480849;28;20049;-58
2022/02/27 08:35:34;;;;;;;4.40;1.87;;;;;;;;;;4482010;28;20035;-62
2022/02/27 08:37:45;;;;;;;2.90;1.40;;;;;;;;;;4482264;28;20488;-58
2022/02/27 08:39:55;;;;;;;2.42;1.45;;;;;;;;;;4483679;28;30031;-58
2022/02/27 08:42:06;;;;;;;3.83;1.63;;;;;;;;;;4482264;28;20042;-59
2022/02/27 08:44:16;;;;;;;3.63;1.73;;;;;;;;;;4482466;28;20035;-58
2022/02/27 08:46:27;;;;;;;3.23;1.70;;;;;;;;;;4482576;28;20374;-58
2022/02/27 08:48:38;;;;;;;3.90;1.77;;;;;;;;;;4482238;28;20219;-59
2022/02/27 08:50:48;;;;;;;3.13;1.60;;;;;;;;;;4481229;28;20042;-58
2022/02/27 08:52:59;;;;;;;3.97;1.80;;;;;;;;;;4479610;28;20086;-59
2022/02/27 08:55:10;;;;;;;3.13;1.60;;;;;;;;;;4480984;28;20533;-59
2022/02/27 08:57:21;;;;;;;;;;;;;;;;;;4481859;28;20653;-58
2022/02/27 08:59:31;;;;;;;4.63;1.60;;;;;;;;;;4480606;28;19922;-58
2022/02/27 09:01:42;;;;;;;4.23;1.83;;;;;;;;;;4482116;28;21106;-58
2022/02/27 09:03:53;;;;;;;3.85;1.70;;;;;;;;;;4478490;28;20041;-58
2022/02/27 09:06:04;;;;;;;4.13;1.57;;;;;;;;;;4469499;28;20537;-58
2022/02/27 09:08:14;;;;;;;3.30;1.70;;;;;;;;;;4495046;28;20530;-59
2022/02/27 09:10:24;;;;;;;2.63;1.43;;;;;;;;;;4480572;28;20551;-59
2022/02/27 09:12:35;;;;;;;3.80;1.67;;;;;;;;;;4481402;28;20035;-58
2022/02/27 09:14:46;;;;;;;4.07;1.70;;;;;;;;;;4481765;28;20039;-59
2022/02/27 09:16:56;;;;;;;2.87;1.70;;;;;;;;;;4480622;28;20089;-58
2022/02/27 09:19:07;;;;;;;3.53;1.60;;;;;;;;;;4482411;28;20117;-58
2022/02/27 09:21:18;;;;;;;4.35;1.75;;;;;;;;;;4479506;28;20038;-59
2022/02/27 09:23:29;;;;;;;5.30;2.00;;;;;;;;;;4479570;28;20045;-56
2022/02/27 09:25:40;;;;;;;3.85;1.60;;;;;;;;;;4469854;28;20034;-58
2022/02/27 09:27:50;;;;;;;4.60;1.53;;;;;;;;;;4481195;28;20038;-58
2022/02/27 09:30:02;;;;;;;4.53;1.80;;;;;;;;;;4479299;28;20043;-59
2022/02/27 09:32:12;;;;;;;2.87;1.60;;;;;;;;;;4481941;28;20021;-59
2022/02/27 09:34:23;;;;;;;4.87;1.63;;;;;;;;;;4481212;28;20033;-59
2022/02/27 09:36:34;;;;;;;4.38;1.30;;;;;;;;;;4483535;28;20057;-58
2022/02/27 09:38:44;;;;;;;3.23;1.30;;;;;;;;;;4478827;28;20042;-58
2022/02/27 09:40:57;;;;;;;2.87;1.33;;;;;;;;;;4485188;28;20054;-58
2022/02/27 09:43:07;;;;;;;4.85;1.58;;;;;;;;;;4480283;28;30174;-57
2022/02/27 09:45:22;;;;;;;2.17;1.37;;;;;;;;;;4481446;28;20046;-58
2022/02/27 09:47:33;;;;;;;12.70;11.00;;;;;;;;;;4480342;28;20035;-58
2022/02/27 09:49:46;;;;;;;12.70;11.13;;;;;;;;;;4480367;28;20022;-58
2022/02/27 09:51:57;;;;;;;13.95;11.32;;;;;;;;;;4463875;28;20061;-58
2022/02/27 09:54:09;;;;;;;12.25;10.60;;;;;;;;;;4478319;28;20038;-58
2022/02/27 09:56:20;;;;;;;12.57;11.20;;;;;;;;;;4480107;28;20041;-58
2022/02/27 09:58:31;;;;;;;14.02;11.38;;;;;;;;;;4481463;28;20502;-58
2022/02/27 10:00:41;;;;;;;12.27;10.97;;;;;;;;;;4479839;28;20046;-58
2022/02/27 10:03:14;;;;;;;13.60;11.33;;;;;;;;;;4484160;28;20541;-58
2022/02/27 10:05:25;;;;;;;13.35;11.00;;;;;;;;;;4472444;28;20045;-58
2022/02/27 10:07:35;;;;;;;14.60;11.10;;;;;;;;;;4480905;28;20030;-58
2022/02/27 10:09:48;;;;;;;14.18;11.38;;;;;;;;;;4480616;28;20624;-58
2022/02/27 10:12:19;;;;;;;14.07;11.23;;;;;;;;;;4479282;28;20065;-58
2022/02/27 10:14:30;;;;;;;4.53;1.80;;;;;;;;;;4479015;28;20039;-58
2022/02/27 10:16:40;;;;;;;2.87;1.30;;;;;;;;;;4480152;28;20023;-58
2022/02/27 10:18:53;;;;;;;4.93;1.50;;;;;;;;;;4478540;28;20049;-57
2022/02/27 10:21:04;;;;;;;3.90;1.50;;;;;;;;;;4482346;28;20038;-58
2022/02/27 10:23:14;;;;;;;4.50;1.63;;;;;;;;;;4485766;28;20041;-58
2022/02/27 10:25:27;;;;;;;2.07;1.10;;;;;;;;;;4464011;28;20377;-59
2022/02/27 10:27:48;;;;;;;2.65;1.40;;;;;;;;;;4482691;28;20049;-59
2022/02/27 10:30:12;;;;;;;2.33;1.42;;;;;;;;;;4477705;28;20042;-59
2022/02/27 10:32:27;;;;;;;3.83;1.40;;;;;;;;;;4484979;28;20560;-59
2022/02/27 10:34:39;;;;;;;3.20;1.33;;;;;;;;;;4478949;28;20849;-57
2022/02/27 10:37:05;;;;;;;4.00;1.77;;;;;;;;;;4480850;28;20578;-58
2022/02/27 10:39:38;;;;;;;3.60;1.30;;;;;;;;;;4478297;28;20557;-59
2022/02/27 10:41:49;;;;;;;4.05;1.45;;;;;;;;;;4483906;28;20038;-59
2022/02/27 10:43:59;;;;;;;2.90;1.17;;;;;;;;;;4481376;28;20431;-59
2022/02/27 10:46:11;;;;;;;2.90;1.13;;;;;;;;;;4479606;28;20086;-59
2022/02/27 10:48:21;;;;;;;;;;;;;;;;;;4481576;28;20578;-58
2022/02/27 10:50:33;;;;;;;2.70;1.10;;;;;;;;;;4470423;28;19914;-58
2022/02/27 10:52:46;;;;;;;2.97;1.40;;;;;;;;;;4478191;28;20077;-59
2022/02/27 10:55:07;;;;;;;2.17;1.10;;;;;;;;;;4470021;28;20140;-58
2022/02/27 10:57:36;;;;;;;3.70;1.40;;;;;;;;;;4479553;28;20713;-58
2022/02/27 10:59:47;;;;;;;3.35;1.25;;;;;;;;;;4466412;28;20050;-58
2022/02/27 11:01:57;;;;;;;2.70;1.30;;;;;;;;;;4484359;28;20034;-58
2022/02/27 11:04:08;;;;;;;3.00;1.20;;;;;;;;;;4482392;28;20174;-59
2022/02/27 11:06:19;;;;;;;3.78;1.23;;;;;;;;;;4481736;28;20038;-58
2022/02/27 11:08:30;;;;;;;3.85;1.33;;;;;;;;;;4480001;28;20117;-58
2022/02/27 11:10:42;;;;;;;3.33;1.30;;;;;;;;;;4481304;28;20034;-58
2022/02/27 11:12:52;;;;;;;3.10;1.30;;;;;;;;;;4478050;28;20578;-58
2022/02/27 11:15:04;;;;;;;3.63;1.23;;;;;;;;;;4481103;28;20129;-58
2022/02/27 11:17:15;;;;;;;2.38;1.10;;;;;;;;;;4479823;28;21287;-58
2022/02/27 11:19:26;;;;;;;2.83;1.33;;;;;;;;;;4480566;28;20053;-58
2022/02/27 11:21:37;;;;;;;3.42;1.30;;;;;;;;;;4468804;28;20038;-58
2022/02/27 11:23:49;;;;;;;3.40;1.20;;;;;;;;;;4480079;28;33838;-58
2022/02/27 11:26:00;;;;;;;2.53;1.30;;;;;;;;;;4477620;28;20049;-58
2022/02/27 11:28:14;;;;;;;4.10;1.35;;;;;;;;;;4480327;28;20072;-58
2022/02/27 11:30:28;;;;;;;2.30;1.02;;;;;;;;;;4481970;28;20069;-58
2022/02/27 11:32:48;;;;;;;3.53;1.48;;;;;;;;;;4479914;28;20037;-58
2022/02/27 11:34:59;;;;;;;2.40;1.13;;;;;;;;;;4479826;28;20053;-58
2022/02/27 11:37:09;;;;;;;2.57;1.23;;;;;;;;;;4481664;28;20045;-58
2022/02/27 11:41:50;;;;;;;4.47;1.48;;;;;;;;;;4478395;28;20042;-58
2022/02/27 11:44:11;;;;;;;2.08;1.17;;;;;;;;;;4478192;28;20571;-58
2022/02/27 11:46:39;;;;;;;3.58;1.58;;;;;;;;;;4476909;28;20155;-58
2022/02/27 11:49:11;;;;;;;1.88;1.20;;;;;;;;;;4471713;28;20038;-58
2022/02/27 11:51:36;;;;;;;1.52;1.02;;;;;;;;;;4479407;28;20574;-58
2022/02/27 11:53:47;;;;;;;3.00;1.20;;;;;;;;;;4478426;28;20575;-58
2022/02/27 11:56:04;;;;;;;1.35;0.90;;;;;;;;;;4477521;28;20031;-58
2022/02/27 11:58:34;;;;;;;2.08;0.90;;;;;;;;;;4480254;28;20522;-58
2022/02/27 12:00:45;;;;;;;1.65;0.90;;;;;;;;;;4482764;28;20049;-58
2022/02/27 12:02:56;;;;;;;1.83;0.90;;;;;;;;;;4483574;28;20049;-58
2022/02/27 12:05:16;;;;;;;2.03;0.90;;;;;;;;;;4479268;28;20089;-58
2022/02/27 12:07:28;;;;;;;1.25;0.70;;;;;;;;;;4484303;28;20045;-58
2022/02/27 12:09:47;;;;;;;1.02;0.70;;;;;;;;;;4480292;28;20715;-58
2022/02/27 12:11:58;;;;;;;2.33;0.90;;;;;;;;;;4487905;28;20104;-58
2022/02/27 12:14:09;;;;;;;1.60;0.80;;;;;;;;;;4483022;28;20092;-58
2022/02/27 12:16:42;;;;;;;1.80;0.80;;;;;;;;;;4485772;28;20638;-58
2022/02/27 12:18:57;;;;;;;1.23;0.80;;;;;;;;;;4480843;28;20034;-58
2022/02/27 12:21:08;;;;;;;1.38;0.82;;;;;;;;;;4481766;28;20030;-58
2022/02/27 12:23:27;;;;;;;1.88;0.80;;;;;;;;;;4483183;28;20030;-58
2022/02/27 12:25:40;;;;;;;1.30;0.75;;;;;;;;;;4481965;28;20136;-58
2022/02/27 12:27:50;;;;;;;1.75;0.80;;;;;;;;;;4470722;28;20039;-58
2022/02/27 12:30:01;;;;;;;1.77;0.80;;;;;;;;;;4484522;28;25979;-58
2022/02/27 12:32:22;;;;;;;1.80;1.10;;;;;;;;;;4484341;28;20334;-58
2022/02/27 12:34:34;;;;;;;2.78;1.08;;;;;;;;;;4483002;28;20587;-58
2022/02/27 12:36:51;;;;;;;;;;;;;;;;;;4486755;28;20030;-57
2022/02/27 12:39:12;;;;;;;3.78;1.20;;;;;;;;;;4461740;28;19926;-58
2022/02/27 12:41:27;;;;;;;2.50;0.98;;;;;;;;;;4479979;28;20089;-58
2022/02/27 12:43:41;;;;;;;2.40;0.80;;;;;;;;;;4481731;28;20034;-58
2022/02/27 12:45:52;;;;;;;2.47;0.90;;;;;;;;;;4479946;28;20035;-58
2022/02/27 12:48:10;;;;;;;1.73;0.80;;;;;;;;;;4482082;28;20035;-58
2022/02/27 12:50:21;;;;;;;1.70;0.80;;;;;;;;;;4481216;28;20042;-58
2022/02/27 12:52:37;;;;;;;2.15;0.95;;;;;;;;;;4480939;28;20039;-58
2022/02/27 12:54:50;;;;;;;1.67;0.82;;;;;;;;;;4482463;28;20030;-58
2022/02/27 12:57:04;;;;;;;2.65;0.98;;;;;;;;;;4483250;28;20756;-60
2022/02/27 12:59:14;;;;;;;2.78;0.93;;;;;;;;;;4482868;28;20080;-58
2022/02/27 13:01:33;;;;;;;2.27;0.90;;;;;;;;;;4484439;28;20034;-58
2022/02/27 13:03:44;;;;;;;1.05;0.70;;;;;;;;;;4481312;28;20034;-58
2022/02/27 13:05:59;;;;;;;2.70;0.90;;;;;;;;;;4485679;28;20038;-58
2022/02/27 13:08:11;;;;;;;2.05;1.20;;;;;;;;;;4482418;28;20629;-58
2022/02/27 13:10:21;;;;;;;2.13;0.77;;;;;;;;;;4478139;28;20042;-58
2022/02/27 13:12:31;;;;;;;2.73;0.97;;;;;;;;;;4479925;28;20038;-58